createdAt,value
2019-04-25T00:01:07.846Z,98.70
2019-04-25T00:03:39.040Z,98.70
2019-04-25T00:06:09.042Z,98.70
2019-04-25T00:08:38.826Z,98.60
2019-04-25T00:11:08.474Z,98.70
2019-04-25T00:13:38.104Z,98.70
2019-04-25T00:16:08.200Z,98.70
2019-04-25T00:18:38.605Z,98.70
2019-04-25T00:21:15.738Z,98.70
2019-04-25T00:23:47.122Z,98.70
2019-04-25T00:26:33.268Z,98.70
2019-04-25T00:29:03.981Z,98.70
2019-04-25T00:31:33.585Z,98.70
2019-04-25T00:34:03.049Z,98.70
2019-04-25T00:36:32.503Z,98.60
2019-04-25T00:39:02.128Z,98.60
2019-04-25T00:41:32.038Z,98.70
2019-04-25T00:44:02.883Z,98.60
2019-04-25T00:46:32.390Z,98.60
2019-04-25T00:49:02.535Z,98.60
2019-04-25T00:51:32.052Z,98.60
2019-04-25T00:54:02.405Z,98.50
2019-04-25T00:56:32.237Z,98.50
2019-04-25T00:59:03.328Z,98.60
2019-04-25T01:01:51.893Z,98.70
2019-04-25T01:04:24.019Z,98.60
2019-04-25T01:06:53.982Z,98.50
2019-04-25T01:09:25.296Z,98.60
2019-04-25T01:11:54.759Z,98.50
2019-04-25T01:14:24.233Z,98.50
2019-04-25T01:16:54.910Z,98.70
2019-04-25T01:19:24.544Z,98.60
2019-04-25T01:21:54.955Z,98.60
2019-04-25T01:24:25.384Z,98.60
2019-04-25T01:26:55.868Z,98.60
2019-04-25T01:29:25.491Z,98.70
2019-04-25T01:31:55.283Z,98.60
2019-04-25T01:34:26.722Z,98.60
2019-04-25T01:37:04.161Z,98.70
2019-04-25T01:39:41.447Z,98.80
2019-04-25T01:42:15.450Z,98.70
2019-04-25T01:44:47.934Z,98.70
2019-04-25T01:47:17.882Z,99.00
2019-04-25T01:49:48.758Z,98.70
2019-04-25T01:52:18.428Z,98.70
2019-04-25T01:54:49.165Z,98.60
2019-04-25T01:57:18.839Z,98.70
2019-04-25T01:59:49.784Z,98.70
2019-04-25T02:02:21.149Z,98.80
2019-04-25T02:04:51.431Z,98.80
2019-04-25T02:07:21.079Z,98.80
2019-04-25T02:09:50.938Z,98.80
2019-04-25T02:12:23.575Z,98.90
2019-04-25T02:14:54.789Z,98.80
2019-04-25T02:17:24.970Z,98.90
2019-04-25T02:19:55.473Z,99.10
2019-04-25T02:22:25.701Z,99.10
2019-04-25T02:24:56.257Z,99.10
2019-04-25T02:27:26.466Z,99.20
2019-04-25T02:29:56.360Z,99.20
2019-04-25T02:32:26.682Z,99.20
2019-04-25T02:35:00.519Z,99.20
2019-04-25T02:37:27.450Z,99.30
2019-04-25T02:39:58.864Z,99.40
2019-04-25T02:42:28.122Z,99.40
2019-04-25T02:45:04.165Z,99.30
2019-04-25T02:50:25.030Z,99.40
2019-04-25T02:52:57.437Z,99.30
2019-04-25T02:55:31.705Z,99.30
2019-04-25T02:58:00.380Z,99.30
2019-04-25T03:00:49.235Z,99.30
2019-04-25T03:03:03.371Z,99.30
2019-04-25T03:05:35.461Z,99.40
2019-04-25T03:08:07.996Z,99.40
2019-04-25T03:10:35.420Z,99.50
2019-04-25T03:13:10.290Z,99.50
2019-04-25T03:15:36.541Z,99.60
2019-04-25T03:18:11.049Z,99.60
2019-04-25T03:20:39.446Z,99.60
2019-04-25T03:23:14.507Z,99.70
2019-04-25T03:25:44.299Z,99.80
2019-04-25T03:28:15.521Z,99.80
2019-04-25T03:30:45.314Z,99.80
2019-04-25T03:33:19.327Z,99.90
2019-04-25T03:35:45.985Z,99.80
2019-04-25T03:38:15.435Z,99.80
2019-04-25T03:40:44.924Z,99.70
2019-04-25T03:43:15.029Z,99.70
2019-04-25T03:45:45.295Z,99.70
2019-04-25T03:48:15.033Z,99.80
2019-04-25T03:50:44.517Z,99.80
2019-04-25T03:53:14.067Z,99.80
2019-04-25T03:55:44.326Z,99.80
2019-04-25T03:58:14.663Z,99.70
2019-04-25T04:00:44.874Z,99.70
2019-04-25T04:03:15.228Z,99.70
2019-04-25T04:05:44.856Z,99.70
2019-04-25T04:08:15.739Z,99.90
2019-04-25T04:10:45.353Z,99.80
2019-04-25T04:13:15.839Z,99.80
2019-04-25T04:15:45.531Z,99.80
2019-04-25T04:18:25.425Z,99.70
2019-04-25T04:21:13.302Z,99.80
2019-04-25T04:24:03.998Z,99.80
2019-04-25T04:26:33.667Z,99.70
2019-04-25T04:29:04.672Z,99.60
2019-04-25T04:31:34.284Z,99.70
2019-04-25T04:34:03.873Z,99.70
2019-04-25T04:36:33.875Z,99.80
2019-04-25T04:39:03.999Z,99.80
2019-04-25T04:41:33.885Z,99.90
2019-04-25T04:44:04.149Z,99.70
2019-04-25T04:46:34.127Z,99.90
2019-04-25T04:49:04.011Z,99.70
2019-04-25T04:51:33.730Z,99.60
2019-04-25T04:54:03.497Z,99.60
2019-04-25T04:56:34.222Z,99.60
2019-04-25T04:59:03.842Z,99.60
2019-04-25T05:01:34.986Z,99.60
2019-04-25T05:04:09.109Z,99.60
2019-04-25T05:06:49.066Z,99.60
2019-04-25T05:09:20.142Z,99.60
2019-04-25T05:11:49.585Z,99.50
2019-04-25T05:14:19.537Z,99.40
2019-04-25T05:16:49.609Z,99.20
2019-04-25T05:19:19.928Z,99.20
2019-04-25T05:21:49.456Z,99.00
2019-04-25T05:24:18.954Z,98.90
2019-04-25T05:26:48.413Z,98.80
2019-04-25T05:29:21.715Z,98.80
2019-04-25T05:31:50.717Z,98.70
2019-04-25T05:34:20.374Z,98.70
2019-04-25T05:36:49.875Z,98.60
2019-04-25T05:39:20.297Z,98.50
2019-04-25T05:41:59.866Z,98.50
2019-04-25T05:44:29.409Z,98.50
2019-04-25T05:46:58.892Z,98.30
2019-04-25T05:49:28.532Z,98.20
2019-04-25T05:51:58.027Z,98.10
2019-04-25T05:54:27.585Z,98.00
2019-04-25T05:56:57.158Z,97.90
2019-04-25T05:59:26.950Z,97.90
2019-04-25T06:01:56.667Z,97.80
2019-04-25T06:04:26.207Z,97.80
2019-04-25T06:06:55.665Z,97.70
2019-04-25T06:09:38.917Z,97.70
2019-04-25T06:12:25.888Z,97.60
2019-04-25T06:14:55.513Z,97.40
2019-04-25T06:17:26.610Z,97.30
2019-04-25T06:19:57.566Z,97.10
2019-04-25T06:22:28.724Z,97.10
2019-04-25T06:24:59.875Z,97.00
2019-04-25T06:27:35.188Z,96.90
2019-04-25T06:30:09.336Z,96.80
2019-04-25T06:32:38.832Z,96.70
2019-04-25T06:35:09.039Z,96.90
2019-04-25T06:37:38.511Z,97.00
2019-04-25T06:40:09.375Z,96.90
2019-04-25T06:42:39.254Z,96.80
2019-04-25T06:45:31.062Z,96.40
2019-04-25T06:48:04.926Z,96.40
2019-04-25T06:50:35.418Z,96.10
2019-04-25T06:53:05.853Z,95.90
2019-04-25T06:55:35.252Z,95.70
2019-04-25T06:58:12.106Z,95.50
2019-04-25T07:00:41.170Z,95.50
2019-04-25T07:03:07.320Z,94.80
2019-04-25T07:05:40.431Z,94.40
2019-04-25T07:08:08.238Z,94.20
2019-04-25T07:10:37.707Z,93.80
2019-04-25T07:13:07.286Z,93.40
2019-04-25T07:15:36.929Z,93.50
2019-04-25T07:18:06.470Z,93.40
2019-04-25T07:20:35.910Z,93.30
2019-04-25T07:23:05.981Z,93.40
2019-04-25T07:25:37.166Z,93.40
2019-04-25T07:28:22.235Z,93.30
2019-04-25T07:30:52.709Z,93.40
2019-04-25T07:33:29.816Z,93.30
2019-04-25T07:35:59.314Z,93.40
2019-04-25T07:38:29.098Z,93.50
2019-04-25T07:40:58.555Z,93.60
2019-04-25T07:43:28.061Z,93.30
2019-04-25T07:45:57.670Z,93.30
2019-04-25T07:48:28.037Z,93.00
2019-04-25T07:50:57.712Z,92.60
2019-04-25T07:53:29.313Z,92.30
2019-04-25T07:55:58.417Z,91.90
2019-04-25T07:58:44.931Z,91.80
2019-04-25T08:01:03.729Z,91.50
2019-04-25T08:03:34.380Z,92.00
2019-04-25T08:06:05.345Z,91.80
2019-04-25T08:08:35.008Z,91.40
2019-04-25T08:11:09.259Z,91.40
2019-04-25T08:13:40.487Z,91.00
2019-04-25T08:16:34.776Z,90.20
2019-04-25T08:19:06.419Z,90.30
2019-04-25T08:21:36.655Z,90.00
2019-04-25T08:24:06.375Z,90.00
2019-04-25T08:26:36.425Z,90.00
2019-04-25T08:29:07.126Z,89.70
2019-04-25T08:31:37.700Z,89.70
2019-04-25T08:34:07.566Z,89.60
2019-04-25T08:36:38.622Z,90.00
2019-04-25T08:39:10.001Z,89.40
2019-04-25T08:41:39.470Z,89.60
2019-04-25T08:44:09.017Z,88.00
2019-04-25T08:46:39.460Z,85.70
2019-04-25T08:49:10.715Z,85.70
2019-04-25T08:51:42.098Z,84.80
2019-04-25T08:54:13.573Z,85.00
2019-04-25T08:56:43.995Z,84.40
2019-04-25T08:59:36.213Z,83.70
2019-04-25T09:02:07.214Z,83.80
2019-04-25T09:04:41.520Z,84.10
2019-04-25T09:07:11.201Z,84.10
2019-04-25T09:09:41.134Z,85.40
2019-04-25T09:12:10.910Z,84.40
2019-04-25T09:14:41.048Z,85.30
2019-04-25T09:17:10.540Z,85.20
2019-04-25T09:19:40.042Z,85.00
2019-04-25T09:22:09.525Z,85.20
2019-04-25T09:24:40.085Z,85.10
2019-04-25T09:27:09.741Z,85.60
2019-04-25T09:29:39.214Z,85.30
2019-04-25T09:32:08.747Z,85.70
2019-04-25T09:34:38.249Z,85.70
2019-04-25T09:37:07.842Z,85.50
2019-04-25T09:39:45.475Z,86.00
2019-04-25T09:42:15.212Z,86.00
2019-04-25T09:44:46.849Z,86.20
2019-04-25T09:47:16.432Z,86.00
2019-04-25T09:49:48.294Z,85.40
2019-04-25T09:52:19.442Z,85.60
2019-04-25T09:54:50.625Z,85.80
2019-04-25T09:57:30.245Z,83.50
2019-04-25T09:59:59.711Z,84.00
2019-04-25T10:02:29.447Z,82.30
2019-04-25T10:04:58.989Z,82.50
2019-04-25T10:07:28.539Z,82.00
2019-04-25T10:09:58.041Z,81.10
2019-04-25T10:12:27.498Z,80.30
2019-04-25T10:15:19.648Z,80.00
2019-04-25T10:17:49.121Z,79.30
2019-04-25T10:20:19.897Z,80.00
2019-04-25T10:22:49.585Z,78.90
2019-04-25T10:25:19.613Z,76.40
2019-04-25T10:27:49.399Z,78.20
2019-04-25T10:30:23.392Z,76.80
2019-04-25T10:32:51.375Z,76.20
2019-04-25T10:35:20.920Z,75.20
2019-04-25T10:37:50.470Z,75.00
2019-04-25T10:40:20.718Z,75.50
2019-04-25T10:42:50.699Z,76.30
2019-04-25T10:45:23.553Z,75.90
2019-04-25T10:47:51.593Z,75.90
2019-04-25T10:50:21.165Z,76.10
2019-04-25T10:52:50.583Z,76.60
2019-04-25T10:55:20.035Z,77.10
2019-04-25T10:57:49.602Z,77.70
2019-04-25T11:00:34.465Z,78.10
2019-04-25T11:03:09.813Z,77.70
2019-04-25T11:05:39.369Z,76.80
2019-04-25T11:08:08.890Z,77.10
2019-04-25T11:10:38.402Z,75.80
2019-04-25T11:13:07.879Z,75.70
2019-04-25T11:15:38.162Z,74.10
2019-04-25T11:18:07.706Z,74.40
2019-04-25T11:20:37.977Z,74.50
2019-04-25T11:23:07.524Z,72.20
2019-04-25T11:25:37.092Z,71.10
2019-04-25T11:28:11.041Z,69.90
2019-04-25T11:30:45.218Z,70.00
2019-04-25T11:33:14.316Z,69.60
2019-04-25T11:35:46.556Z,70.10
2019-04-25T11:38:17.071Z,69.80
2019-04-25T11:40:50.210Z,69.30
2019-04-25T11:43:19.577Z,69.80
2019-04-25T11:45:49.283Z,69.10
2019-04-25T11:48:19.056Z,69.20
2019-04-25T11:50:51.205Z,69.80
2019-04-25T11:53:20.205Z,70.30
2019-04-25T11:55:51.325Z,70.60
2019-04-25T11:58:20.967Z,71.60
2019-04-25T12:00:50.953Z,72.20
2019-04-25T12:03:20.594Z,72.60
2019-04-25T12:05:50.966Z,72.90
2019-04-25T12:08:20.727Z,72.40
2019-04-25T12:10:50.185Z,71.10
2019-04-25T12:13:19.707Z,70.70
2019-04-25T12:15:49.832Z,70.70
2019-04-25T12:18:19.382Z,69.10
2019-04-25T12:20:48.837Z,69.50
2019-04-25T12:23:18.281Z,68.30
2019-04-25T12:25:47.756Z,65.90
2019-04-25T12:28:17.212Z,65.60
2019-04-25T12:30:47.641Z,65.70
2019-04-25T12:33:21.125Z,64.10
2019-04-25T12:35:48.457Z,64.40
2019-04-25T12:38:20.328Z,62.90
2019-04-25T12:40:50.055Z,61.40
2019-04-25T12:43:21.250Z,61.60
2019-04-25T12:45:52.893Z,61.70
2019-04-25T12:48:23.469Z,63.20
2019-04-25T12:50:54.258Z,61.50
2019-04-25T12:53:24.407Z,60.30
2019-04-25T12:55:54.936Z,59.40
2019-04-25T12:58:24.592Z,60.10
2019-04-25T13:00:58.329Z,59.40
2019-04-25T13:03:26.255Z,60.80
2019-04-25T13:05:56.343Z,59.70
2019-04-25T13:08:25.796Z,60.60
2019-04-25T13:11:07.331Z,60.80
2019-04-25T13:13:26.539Z,61.20
2019-04-25T13:15:56.159Z,61.80
2019-04-25T13:18:25.635Z,61.40
2019-04-25T13:20:57.191Z,62.10
2019-04-25T13:23:26.566Z,61.30
2019-04-25T13:25:57.264Z,62.00
2019-04-25T13:28:47.043Z,62.30
2019-04-25T13:31:36.467Z,62.10
2019-04-25T13:34:07.791Z,62.40
2019-04-25T13:36:37.250Z,61.00
2019-04-25T13:39:10.049Z,61.90
2019-04-25T13:41:39.607Z,60.90
2019-04-25T13:44:09.283Z,62.00
2019-04-25T13:46:38.898Z,62.60
2019-04-25T13:49:08.427Z,62.10
2019-04-25T13:51:37.845Z,62.30
2019-04-25T13:54:07.426Z,61.80
2019-04-25T13:56:40.386Z,62.60
2019-04-25T13:59:08.286Z,62.80
2019-04-25T14:01:37.791Z,63.20
2019-04-25T14:04:08.602Z,63.30
2019-04-25T14:06:38.083Z,62.80
2019-04-25T14:09:09.604Z,63.80
2019-04-25T14:11:39.140Z,64.50
2019-04-25T14:14:08.674Z,65.30
2019-04-25T14:16:39.823Z,65.70
2019-04-25T14:19:17.182Z,64.90
2019-04-25T14:21:47.534Z,65.30
2019-04-25T14:24:20.567Z,64.50
2019-04-25T14:26:48.264Z,65.40
2019-04-25T14:29:17.787Z,66.60
2019-04-25T14:31:48.574Z,66.50
2019-04-25T14:34:18.322Z,68.00
2019-04-25T14:36:47.805Z,67.90
2019-04-25T14:39:18.187Z,68.20
2019-04-25T14:41:47.916Z,68.80
2019-04-25T14:44:17.552Z,70.20
2019-04-25T14:46:47.374Z,71.50
2019-04-25T14:49:16.840Z,72.00
2019-04-25T14:51:46.368Z,73.30
2019-04-25T14:54:17.509Z,74.30
2019-04-25T14:56:51.384Z,75.80
2019-04-25T14:59:22.254Z,77.90
2019-04-25T15:01:52.257Z,80.70
2019-04-25T15:04:24.596Z,81.80
2019-04-25T15:06:54.100Z,84.70
2019-04-25T15:09:24.582Z,85.00
2019-04-25T15:11:54.215Z,86.60
2019-04-25T15:14:24.753Z,86.40
2019-04-25T15:16:54.407Z,87.60
2019-04-25T15:19:24.142Z,87.90
2019-04-25T15:21:53.835Z,87.60
2019-04-25T15:24:23.900Z,87.70
2019-04-25T15:26:53.758Z,89.00
2019-04-25T15:29:23.349Z,89.50
2019-04-25T15:31:55.992Z,90.10
2019-04-25T15:34:26.031Z,90.30
2019-04-25T15:37:02.972Z,90.40
2019-04-25T15:39:35.256Z,90.70
2019-04-25T15:42:22.716Z,90.90
2019-04-25T15:45:10.050Z,91.00
2019-04-25T15:47:39.561Z,90.70
2019-04-25T15:50:09.595Z,90.60
2019-04-25T15:52:39.151Z,90.60
2019-04-25T15:55:08.834Z,91.10
2019-04-25T15:57:38.436Z,91.30
2019-04-25T16:00:09.739Z,91.40
2019-04-25T16:02:39.204Z,91.80
2019-04-25T16:05:09.028Z,92.30
2019-04-25T16:07:38.540Z,91.90
2019-04-25T16:10:08.318Z,91.90
2019-04-25T16:12:39.629Z,92.10
2019-04-25T16:15:10.021Z,92.10
2019-04-25T16:17:40.001Z,92.70
2019-04-25T16:20:09.949Z,92.50
2019-04-25T16:22:39.517Z,92.90
2019-04-25T16:25:10.134Z,92.80
2019-04-25T16:27:39.590Z,92.80
2019-04-25T16:30:09.911Z,91.50
2019-04-25T16:32:39.403Z,91.70
2019-04-25T16:35:09.650Z,93.20
2019-04-25T16:37:39.120Z,93.60
2019-04-25T16:40:10.015Z,93.50
2019-04-25T16:42:41.765Z,93.40
2019-04-25T16:45:12.299Z,93.40
2019-04-25T16:47:41.906Z,93.80
2019-04-25T16:50:12.303Z,93.70
2019-04-25T16:52:42.635Z,94.00
2019-04-25T16:55:12.564Z,94.40
2019-04-25T16:57:42.161Z,94.70
2019-04-25T17:00:30.855Z,95.20
2019-04-25T17:03:01.058Z,95.50
2019-04-25T17:05:30.942Z,95.60
2019-04-25T17:08:00.517Z,96.00
2019-04-25T17:10:31.415Z,96.10
2019-04-25T17:13:01.019Z,96.20
2019-04-25T17:15:38.400Z,96.30
2019-04-25T17:18:18.653Z,96.80
2019-04-25T17:21:01.907Z,96.80
2019-04-25T17:23:32.285Z,97.20
2019-04-25T17:26:02.181Z,97.00
2019-04-25T17:28:33.428Z,97.30
2019-04-25T17:31:13.595Z,97.50
2019-04-25T17:33:47.608Z,97.40
2019-04-25T17:36:24.468Z,97.60
2019-04-25T17:38:58.448Z,97.70
2019-04-25T17:41:27.893Z,97.40
2019-04-25T17:43:57.438Z,97.40
2019-04-25T17:46:26.916Z,97.30
2019-04-25T17:48:56.405Z,97.30
2019-04-25T17:51:26.045Z,97.30
2019-04-25T17:53:55.542Z,97.20
2019-04-25T17:56:25.022Z,97.20
2019-04-25T17:58:54.463Z,97.40
2019-04-25T18:01:26.634Z,97.20
2019-04-25T18:03:56.188Z,97.40
2019-04-25T18:06:25.662Z,97.40
2019-04-25T18:08:55.137Z,97.80
2019-04-25T18:11:24.611Z,98.00
2019-04-25T18:13:54.072Z,97.90
2019-04-25T18:16:31.048Z,98.10
2019-04-25T18:19:11.158Z,98.50
2019-04-25T18:21:40.751Z,98.20
2019-04-25T18:24:17.925Z,98.50
2019-04-25T18:26:58.438Z,98.30
2019-04-25T18:29:27.996Z,98.50
2019-04-25T18:31:57.443Z,98.40
2019-04-25T18:34:28.570Z,98.60
2019-04-25T18:37:15.744Z,98.70
2019-04-25T18:39:49.397Z,98.70
2019-04-25T18:42:29.426Z,98.70
2019-04-25T18:44:58.893Z,98.90
2019-04-25T18:47:28.368Z,98.80
2019-04-25T18:49:57.855Z,98.60
2019-04-25T18:52:41.023Z,98.60
2019-04-25T18:55:27.233Z,98.60
2019-04-25T18:58:01.118Z,98.40
2019-04-25T19:00:41.650Z,98.30
2019-04-25T19:03:23.434Z,98.40
2019-04-25T19:05:54.590Z,98.50
2019-04-25T19:08:24.091Z,98.50
2019-04-25T19:10:53.622Z,98.60
2019-04-25T19:13:23.233Z,98.70
2019-04-25T19:15:52.824Z,98.60
2019-04-25T19:18:22.367Z,98.70
2019-04-25T19:20:52.375Z,98.60
2019-04-25T19:23:22.008Z,98.60
2019-04-25T19:25:52.157Z,98.60
2019-04-25T19:28:21.717Z,98.50
2019-04-25T19:30:51.484Z,98.60
2019-04-25T19:33:34.705Z,98.60
2019-04-25T19:35:53.897Z,98.80
2019-04-25T19:38:23.376Z,98.70
2019-04-25T19:41:03.416Z,98.80
2019-04-25T19:43:34.515Z,98.80
2019-04-25T19:46:04.101Z,98.80
2019-04-25T19:48:33.641Z,98.80
2019-04-25T19:51:03.237Z,98.80
2019-04-25T19:53:32.744Z,98.90
2019-04-25T19:56:02.237Z,98.90
2019-04-25T19:58:31.712Z,98.80
2019-04-25T20:01:01.173Z,98.90
2019-04-25T20:03:32.302Z,98.90
2019-04-25T20:06:03.421Z,99.30
2019-04-25T20:08:34.611Z,98.90
2019-04-25T20:11:08.841Z,99.00
2019-04-25T20:13:38.335Z,99.10
2019-04-25T20:16:07.873Z,99.10
2019-04-25T20:18:37.329Z,99.10
2019-04-25T20:21:06.847Z,99.20
2019-04-25T20:23:36.350Z,99.30
2019-04-25T20:26:05.902Z,99.30
2019-04-25T20:28:35.370Z,99.30
2019-04-25T20:31:04.957Z,99.30
2019-04-25T20:33:34.414Z,99.30
2019-04-25T20:36:03.919Z,99.30
2019-04-25T20:38:33.385Z,99.40
2019-04-25T20:41:03.041Z,99.50
2019-04-25T20:43:32.741Z,99.50
2019-04-25T20:46:02.213Z,99.50
2019-04-25T20:48:31.717Z,99.50
2019-04-25T20:51:01.223Z,99.50
2019-04-25T20:53:30.751Z,99.60
2019-04-25T20:56:00.257Z,99.60
2019-04-25T20:58:29.717Z,99.70
2019-04-25T21:01:00.852Z,99.70
2019-04-25T21:03:30.315Z,99.90
2019-04-25T21:06:01.769Z,99.80
2019-04-25T21:08:31.453Z,99.80
2019-04-25T21:11:00.912Z,99.80
2019-04-25T21:13:34.712Z,99.80
2019-04-25T21:16:08.394Z,99.80
2019-04-25T21:18:42.170Z,99.80
2019-04-25T21:21:11.690Z,99.80
2019-04-25T21:23:41.139Z,99.80
2019-04-25T21:26:10.587Z,99.80
2019-04-25T21:28:40.103Z,99.80
2019-04-25T21:31:09.584Z,99.90
2019-04-25T21:33:39.077Z,99.90
2019-04-25T21:36:08.601Z,99.90
2019-04-25T21:38:38.238Z,99.90
2019-04-25T21:41:09.416Z,99.90
2019-04-25T21:43:43.405Z,99.90
2019-04-25T21:46:13.367Z,99.90
2019-04-25T21:48:43.164Z,99.90
2019-04-25T21:51:30.321Z,99.90
2019-04-25T21:54:02.543Z,99.90
2019-04-25T21:56:33.156Z,99.90
2019-04-25T21:59:02.653Z,99.90
2019-04-25T22:01:36.644Z,99.90
2019-04-25T22:04:06.417Z,99.90
2019-04-25T22:06:36.683Z,99.90
2019-04-25T22:09:11.473Z,99.90
2019-04-25T22:11:41.008Z,99.90
2019-04-25T22:14:11.455Z,99.90
2019-04-25T22:16:41.341Z,99.90
2019-04-25T22:19:11.253Z,99.90
2019-04-25T22:21:40.960Z,99.90
2019-04-25T22:24:14.626Z,99.90
2019-04-25T22:26:41.643Z,99.90
2019-04-25T22:29:11.447Z,99.90
2019-04-25T22:31:48.643Z,99.90
2019-04-25T22:34:36.066Z,99.80
2019-04-25T22:37:06.251Z,99.80
2019-04-25T22:39:35.715Z,99.70
2019-04-25T22:42:05.851Z,99.60
2019-04-25T22:44:35.602Z,99.70
2019-04-25T22:47:06.328Z,99.70
2019-04-25T22:49:35.813Z,99.90
2019-04-25T22:52:06.843Z,99.70
2019-04-25T22:54:36.560Z,99.70
2019-04-25T22:57:06.377Z,99.70
2019-04-25T22:59:36.265Z,99.70
2019-04-25T23:02:35.711Z,99.70
2019-04-25T23:05:15.765Z,99.70
2019-04-25T23:07:42.078Z,99.70
2019-04-25T23:10:12.363Z,99.90
2019-04-25T23:12:42.057Z,99.80
2019-04-25T23:15:12.945Z,99.90
2019-04-25T23:17:42.529Z,99.90
2019-04-25T23:20:12.551Z,99.90
2019-04-25T23:22:42.065Z,99.90
2019-04-25T23:25:14.195Z,99.90
2019-04-25T23:27:45.477Z,99.90
2019-04-25T23:30:16.817Z,99.70
2019-04-25T23:32:46.243Z,99.90
2019-04-25T23:35:28.063Z,99.90
2019-04-25T23:37:46.962Z,99.90
2019-04-25T23:40:16.477Z,99.90
2019-04-25T23:42:45.946Z,99.90
2019-04-25T23:45:16.772Z,99.90
2019-04-25T23:47:46.269Z,99.90
2019-04-25T23:50:16.844Z,99.90
2019-04-25T23:52:46.442Z,99.90
2019-04-25T23:55:17.067Z,99.90
2019-04-25T23:57:46.754Z,99.90
